Lethbridge County Airport

Airport
ICAO code: 
CYQL
Summary
ICAO Region: 
NAM
Territory: 
Location: 
Lethbridge, Alberta,
Coordinates: 
Aerial View: 
49° 37' 47.017" N, 112° 47' 25.006" W
Metar
Observation
CYQL 271141Z AUTO 07009KT 3/8SM -FZRA FZFG VV002 M01/M02 A3013 RMK ICG SLP246
Station
Lethbridge, Alta.
Date/Time
2021-11-27 11:41:00
Wind direction
70°
Wind speed
09 kts
Lowest cloud amount
n/a
Temperature
-1°C
Dew point
-2°C
Humidity
92%
Weather condition
light freezing

Description

Regional airport serving Lethbridge, Alberta, Canada.

Climatology

Humid Continental climate (Köppen climate classification Dfb) - Variable weather patterns and a large seasonal temperature variance. Summers are often warm and humid with frequent thunderstorms and winters can be very cold with frequent snowfall and persistent snow cover.

Runways

Designator Length Width Surface Rops
12/30 1676 46 ASP Yes/Yes
5/23 1981 61 ASP Yes/Yes
Airport map: 
Aerial View: 

SKYbrary Partners:

Safety knowledge contributed by: